createdAt,value
2019-01-25T00:02:43.315Z,15.17
2019-01-25T00:05:23.363Z,14.37
2019-01-25T00:08:03.688Z,14.43
2019-01-25T00:10:44.118Z,14.53
2019-01-25T00:13:11.884Z,15.07
2019-01-25T00:15:51.863Z,15.70
2019-01-25T00:18:32.006Z,14.07
2019-01-25T00:21:12.244Z,13.63
2019-01-25T00:23:52.835Z,14.63
2019-01-25T00:26:33.820Z,15.23
2019-01-25T00:29:13.388Z,14.37
2019-01-25T00:31:53.766Z,15.13
2019-01-25T00:34:33.998Z,14.63
2019-01-25T00:37:14.476Z,14.37
2019-01-25T00:39:54.664Z,14.20
2019-01-25T00:42:34.787Z,14.93
2019-01-25T00:45:02.517Z,13.80
2019-01-25T00:47:30.099Z,13.67
2019-01-25T00:49:57.837Z,13.50
2019-01-25T00:52:25.448Z,13.87
2019-01-25T00:54:53.032Z,14.67
2019-01-25T00:57:40.067Z,15.07
2019-01-25T01:00:20.039Z,14.93
2019-01-25T01:03:00.883Z,14.33
2019-01-25T01:05:40.865Z,15.33
2019-01-25T01:08:21.215Z,15.13
2019-01-25T01:11:01.631Z,14.50
2019-01-25T01:13:43.149Z,15.17
2019-01-25T01:16:22.885Z,15.60
2019-01-25T01:19:03.213Z,15.90
2019-01-25T01:21:44.917Z,15.23
2019-01-25T01:24:25.332Z,16.57
2019-01-25T01:27:05.583Z,16.60
2019-01-25T01:29:33.275Z,14.87
2019-01-25T01:32:00.835Z,16.40
2019-01-25T01:34:28.920Z,16.27
2019-01-25T01:36:56.543Z,17.97
2019-01-25T01:39:24.279Z,17.83
2019-01-25T01:41:51.896Z,18.07
2019-01-25T01:44:19.635Z,17.23
2019-01-25T01:46:47.200Z,17.70
2019-01-25T01:49:15.091Z,17.83
2019-01-25T01:51:42.652Z,18.13
2019-01-25T01:54:10.270Z,18.07
2019-01-25T01:56:37.865Z,18.63
2019-01-25T01:59:05.494Z,17.93
2019-01-25T02:01:33.087Z,18.03
2019-01-25T02:04:00.669Z,17.83
2019-01-25T02:06:28.588Z,17.30
2019-01-25T02:08:56.212Z,17.43
2019-01-25T02:11:23.827Z,18.53
2019-01-25T02:13:51.420Z,17.93
2019-01-25T02:16:19.066Z,19.07
2019-01-25T02:18:46.780Z,18.87
2019-01-25T02:21:14.443Z,19.03
2019-01-25T02:23:42.105Z,18.60
2019-01-25T02:26:09.719Z,18.57
2019-01-25T02:28:37.368Z,19.27
2019-01-25T02:31:05.001Z,18.93
2019-01-25T02:33:32.600Z,18.53
2019-01-25T02:36:00.340Z,18.47
2019-01-25T02:38:28.092Z,18.57
2019-01-25T02:40:55.664Z,19.53
2019-01-25T02:43:23.372Z,19.07
2019-01-25T02:46:10.399Z,20.47
2019-01-25T02:48:48.557Z,19.90
2019-01-25T02:51:28.153Z,19.40
2019-01-25T02:54:08.456Z,19.27
2019-01-25T02:56:36.032Z,19.60
2019-01-25T02:59:03.885Z,18.90
2019-01-25T03:01:31.511Z,19.63
2019-01-25T03:03:59.229Z,18.90
2019-01-25T03:06:27.023Z,18.83
2019-01-25T03:08:54.629Z,19.40
2019-01-25T03:11:22.204Z,20.20
2019-01-25T03:13:49.806Z,19.77
2019-01-25T03:16:18.473Z,19.87
2019-01-25T03:18:46.072Z,18.50
2019-01-25T03:21:13.731Z,20.00
2019-01-25T03:23:41.366Z,20.00
2019-01-25T03:26:09.315Z,19.50
2019-01-25T03:28:36.961Z,19.93
2019-01-25T03:31:04.500Z,20.53
2019-01-25T03:33:32.140Z,19.93
2019-01-25T03:35:59.871Z,19.57
2019-01-25T03:38:27.686Z,19.87
2019-01-25T03:40:55.625Z,20.23
2019-01-25T03:43:23.238Z,21.00
2019-01-25T03:45:50.883Z,20.47
2019-01-25T03:48:18.582Z,19.77
2019-01-25T03:50:46.184Z,19.73
2019-01-25T03:53:13.858Z,19.93
2019-01-25T03:55:41.609Z,21.10
2019-01-25T03:58:09.236Z,20.77
2019-01-25T04:00:36.874Z,20.43
2019-01-25T04:03:04.783Z,21.33
2019-01-25T04:05:32.467Z,21.23
2019-01-25T04:08:00.353Z,20.80
2019-01-25T04:10:28.584Z,21.47
2019-01-25T04:12:56.244Z,21.13
2019-01-25T04:15:26.048Z,21.33
2019-01-25T04:17:53.786Z,41.07
2019-01-25T04:20:21.581Z,22.77
2019-01-25T04:22:49.644Z,20.70
2019-01-25T04:25:19.375Z,21.03
2019-01-25T04:27:47.202Z,21.00
2019-01-25T04:30:17.556Z,22.60
2019-01-25T04:32:45.249Z,20.90
2019-01-25T04:35:13.261Z,20.47
2019-01-25T04:37:40.869Z,21.30
2019-01-25T04:40:11.149Z,19.33
2019-01-25T04:42:38.740Z,21.50
2019-01-25T04:45:08.117Z,20.70
2019-01-25T04:47:35.780Z,20.47
2019-01-25T04:50:05.358Z,20.20
2019-01-25T04:52:32.920Z,20.40
2019-01-25T04:55:07.241Z,19.53
2019-01-25T04:57:34.838Z,20.67
2019-01-25T05:00:03.038Z,20.67
2019-01-25T05:02:30.996Z,20.10
2019-01-25T05:04:58.829Z,19.13
2019-01-25T05:07:26.558Z,19.03
2019-01-25T05:09:54.513Z,18.53
2019-01-25T05:12:22.280Z,19.90
2019-01-25T05:14:50.024Z,19.03
2019-01-25T05:17:17.605Z,19.30
2019-01-25T05:19:45.212Z,18.83
2019-01-25T05:22:12.816Z,19.57
2019-01-25T05:24:40.413Z,20.07
2019-01-25T05:27:08.054Z,20.37
2019-01-25T05:29:52.553Z,21.10
2019-01-25T05:32:20.143Z,19.37
2019-01-25T05:34:47.789Z,19.60
2019-01-25T05:37:15.442Z,18.33
2019-01-25T05:39:42.977Z,18.97
2019-01-25T05:42:10.576Z,19.03
2019-01-25T05:44:38.265Z,19.63
2019-01-25T05:47:10.092Z,19.10
2019-01-25T05:49:37.840Z,18.60
2019-01-25T05:52:05.987Z,19.63
2019-01-25T05:54:53.002Z,18.30
2019-01-25T05:57:20.597Z,18.23
2019-01-25T05:59:48.202Z,19.73
2019-01-25T06:02:15.780Z,19.17
2019-01-25T06:04:43.476Z,18.90
2019-01-25T06:07:24.947Z,18.70
2019-01-25T06:10:05.540Z,18.70
2019-01-25T06:12:45.985Z,18.47
2019-01-25T06:15:27.052Z,19.63
2019-01-25T06:18:07.173Z,19.13
2019-01-25T06:20:48.745Z,19.53
2019-01-25T06:23:28.636Z,18.73
2019-01-25T06:26:09.121Z,19.47
2019-01-25T06:28:49.282Z,19.43
2019-01-25T06:31:29.990Z,19.47
2019-01-25T06:34:10.028Z,18.67
2019-01-25T06:36:50.342Z,19.57
2019-01-25T06:39:30.548Z,18.27
2019-01-25T06:42:10.887Z,19.03
2019-01-25T06:44:51.428Z,18.87
2019-01-25T06:47:31.762Z,20.00
2019-01-25T06:50:13.776Z,23.63
2019-01-25T06:52:53.773Z,20.20
2019-01-25T06:55:21.392Z,21.47
2019-01-25T06:58:11.484Z,20.50
2019-01-25T07:00:43.719Z,21.97
2019-01-25T07:03:11.422Z,20.37
2019-01-25T07:05:39.006Z,20.77
2019-01-25T07:08:08.413Z,22.30
2019-01-25T07:10:35.989Z,21.87
2019-01-25T07:13:03.629Z,20.63
2019-01-25T07:15:31.275Z,22.23
2019-01-25T07:17:58.916Z,21.40
2019-01-25T07:20:26.492Z,21.83
2019-01-25T07:22:54.241Z,21.17
2019-01-25T07:25:22.152Z,19.87
2019-01-25T07:27:49.715Z,20.23
2019-01-25T07:30:17.722Z,19.87
2019-01-25T07:32:45.382Z,21.17
2019-01-25T07:35:13.596Z,20.03
2019-01-25T07:37:41.172Z,21.97
2019-01-25T07:40:08.765Z,20.60
2019-01-25T07:42:36.397Z,20.70
2019-01-25T07:45:04.822Z,19.20
2019-01-25T07:47:32.843Z,19.50
2019-01-25T07:50:00.660Z,20.17
2019-01-25T07:52:28.331Z,22.47
2019-01-25T07:54:55.992Z,21.67
2019-01-25T07:57:23.708Z,21.80
2019-01-25T07:59:51.395Z,22.13
2019-01-25T08:02:18.988Z,21.77
2019-01-25T08:04:46.737Z,23.07
2019-01-25T08:07:14.344Z,23.23
2019-01-25T08:09:41.904Z,23.63
2019-01-25T08:12:09.794Z,22.87
2019-01-25T08:14:38.133Z,23.53
2019-01-25T08:17:05.789Z,22.70
2019-01-25T08:19:33.384Z,24.43
2019-01-25T08:22:01.168Z,23.93
2019-01-25T08:24:28.827Z,25.10
2019-01-25T08:26:56.773Z,23.93
2019-01-25T08:29:28.182Z,23.07
2019-01-25T08:31:53.714Z,21.53
2019-01-25T08:34:21.296Z,22.40
2019-01-25T08:36:49.006Z,22.43
2019-01-25T08:39:16.695Z,21.90
2019-01-25T08:41:44.300Z,23.60
2019-01-25T08:44:11.864Z,24.10
2019-01-25T08:46:39.499Z,22.90
2019-01-25T08:49:07.132Z,23.43
2019-01-25T08:51:34.742Z,23.20
2019-01-25T08:54:02.645Z,23.80
2019-01-25T08:56:30.368Z,23.80
2019-01-25T08:58:58.901Z,24.33
2019-01-25T09:01:26.644Z,25.60
2019-01-25T09:03:54.260Z,25.03
2019-01-25T09:06:21.841Z,25.80
2019-01-25T09:08:49.461Z,24.53
2019-01-25T09:11:17.061Z,25.93
2019-01-25T09:13:44.705Z,24.63
2019-01-25T09:16:12.288Z,25.53
2019-01-25T09:18:39.925Z,25.07
2019-01-25T09:21:07.522Z,25.80
2019-01-25T09:23:35.185Z,26.63
2019-01-25T09:26:03.120Z,27.07
2019-01-25T09:28:30.721Z,25.60
2019-01-25T09:30:58.330Z,25.57
2019-01-25T09:33:25.919Z,25.03
2019-01-25T09:35:53.554Z,26.13
2019-01-25T09:38:21.171Z,26.30
2019-01-25T09:40:48.765Z,26.50
2019-01-25T09:43:16.373Z,26.40
2019-01-25T09:45:43.960Z,26.27
2019-01-25T09:48:11.874Z,25.20
2019-01-25T09:50:39.451Z,25.63
2019-01-25T09:53:07.051Z,25.63
2019-01-25T09:55:34.704Z,25.30
2019-01-25T09:58:04.653Z,27.77
2019-01-25T10:00:38.491Z,26.80
2019-01-25T10:03:06.126Z,26.57
2019-01-25T10:05:33.718Z,25.60
2019-01-25T10:08:01.327Z,26.73
2019-01-25T10:10:28.924Z,27.30
2019-01-25T10:12:56.857Z,26.83
2019-01-25T10:15:25.084Z,26.80
2019-01-25T10:17:52.695Z,28.43
2019-01-25T10:20:20.440Z,27.37
2019-01-25T10:22:48.032Z,27.30
2019-01-25T10:25:15.710Z,27.43
2019-01-25T10:27:43.279Z,26.03
2019-01-25T10:30:14.579Z,26.17
2019-01-25T10:32:42.135Z,27.27
2019-01-25T10:35:10.216Z,27.97
2019-01-25T10:37:37.795Z,28.03
2019-01-25T10:40:08.208Z,28.77
2019-01-25T10:42:55.210Z,27.37
2019-01-25T10:45:29.392Z,27.23
2019-01-25T10:47:57.031Z,27.47
2019-01-25T10:50:24.604Z,28.00
2019-01-25T10:52:52.223Z,28.00
2019-01-25T10:55:19.793Z,28.13
2019-01-25T10:57:47.552Z,29.10
2019-01-25T11:00:17.024Z,28.27
2019-01-25T11:02:44.616Z,27.17
2019-01-25T11:05:15.157Z,27.93
2019-01-25T11:07:42.770Z,28.43
2019-01-25T11:10:10.634Z,27.97
2019-01-25T11:12:38.253Z,28.40
2019-01-25T11:15:08.224Z,29.17
2019-01-25T11:17:36.569Z,28.97
2019-01-25T11:20:07.956Z,29.37
2019-01-25T11:22:35.627Z,28.10
2019-01-25T11:25:04.260Z,28.20
2019-01-25T11:27:31.833Z,27.70
2019-01-25T11:29:59.412Z,28.53
2019-01-25T11:32:27.052Z,29.63
2019-01-25T11:34:54.924Z,29.00
2019-01-25T11:37:22.494Z,29.83
2019-01-25T11:39:50.125Z,31.20
2019-01-25T11:42:17.680Z,31.50
2019-01-25T11:44:45.271Z,28.80
2019-01-25T11:47:12.896Z,29.47
2019-01-25T11:49:40.480Z,28.73
2019-01-25T11:52:08.041Z,29.67
2019-01-25T11:54:35.675Z,28.80
2019-01-25T11:57:03.299Z,28.80
2019-01-25T11:59:30.891Z,29.67
2019-01-25T12:01:58.515Z,28.67
2019-01-25T12:04:40.205Z,29.97
2019-01-25T12:07:21.749Z,30.10
2019-01-25T12:09:49.351Z,30.20
2019-01-25T12:12:16.941Z,29.57
2019-01-25T12:14:44.528Z,29.23
2019-01-25T12:17:12.325Z,29.40
2019-01-25T12:19:39.976Z,30.07
2019-01-25T12:22:07.576Z,29.70
2019-01-25T12:24:35.223Z,26.93
2019-01-25T12:27:02.769Z,27.30
2019-01-25T12:29:30.700Z,27.43
2019-01-25T12:31:58.345Z,27.17
2019-01-25T12:34:27.942Z,28.67
2019-01-25T12:36:55.548Z,29.13
2019-01-25T12:39:23.357Z,26.20
2019-01-25T12:41:50.975Z,27.77
2019-01-25T12:44:18.591Z,26.53
2019-01-25T12:46:46.239Z,27.40
2019-01-25T12:49:14.792Z,27.97
2019-01-25T12:51:49.756Z,24.90
2019-01-25T12:54:17.355Z,26.20
2019-01-25T12:56:44.943Z,27.03
2019-01-25T12:59:12.872Z,25.83
2019-01-25T13:01:40.481Z,25.30
2019-01-25T13:04:10.504Z,24.63
2019-01-25T13:06:38.133Z,25.40
2019-01-25T13:09:08.623Z,26.07
2019-01-25T13:11:36.250Z,25.93
2019-01-25T13:14:04.006Z,25.07
2019-01-25T13:16:31.574Z,25.43
2019-01-25T13:18:59.441Z,25.00
2019-01-25T13:21:27.270Z,24.67
2019-01-25T13:23:54.847Z,25.47
2019-01-25T13:26:22.418Z,24.73
2019-01-25T13:28:50.008Z,26.00
2019-01-25T13:31:17.624Z,24.57
2019-01-25T13:33:45.237Z,26.30
2019-01-25T13:36:12.934Z,26.43
2019-01-25T13:38:40.567Z,26.37
2019-01-25T13:41:08.267Z,26.93
2019-01-25T13:43:39.131Z,25.60
2019-01-25T13:46:06.175Z,26.90
2019-01-25T13:48:33.891Z,25.40
2019-01-25T13:51:01.415Z,26.47
2019-01-25T13:53:29.036Z,26.57
2019-01-25T13:55:56.656Z,26.57
2019-01-25T13:58:24.239Z,26.80
2019-01-25T14:00:51.847Z,25.37
2019-01-25T14:03:19.496Z,25.53
2019-01-25T14:05:47.108Z,25.47
2019-01-25T14:08:14.692Z,25.87
2019-01-25T14:10:42.283Z,24.10
2019-01-25T14:13:10.004Z,25.67
2019-01-25T14:15:37.584Z,25.17
2019-01-25T14:18:05.392Z,24.17
2019-01-25T14:20:33.021Z,25.30
2019-01-25T14:23:03.013Z,25.13
2019-01-25T14:25:30.728Z,24.10
2019-01-25T14:27:58.327Z,25.10
2019-01-25T14:30:46.788Z,24.40
2019-01-25T14:33:14.420Z,24.83
2019-01-25T14:35:42.072Z,25.10
2019-01-25T14:38:13.024Z,24.23
2019-01-25T14:40:40.920Z,24.43
2019-01-25T14:43:08.535Z,24.30
2019-01-25T14:45:36.517Z,25.00
2019-01-25T14:48:04.826Z,23.73
2019-01-25T14:50:32.395Z,22.53
2019-01-25T14:53:00.220Z,22.67
2019-01-25T14:55:27.934Z,23.67
2019-01-25T14:57:55.641Z,23.00
2019-01-25T15:00:23.276Z,23.67
2019-01-25T15:02:50.860Z,22.30
2019-01-25T15:05:19.000Z,21.73
2019-01-25T15:11:01.040Z,20.20
2019-01-25T15:13:42.779Z,21.97
2019-01-25T15:16:22.639Z,20.93
2019-01-25T15:19:04.145Z,21.77
2019-01-25T15:21:44.212Z,21.13
2019-01-25T15:24:25.681Z,21.73
2019-01-25T15:27:05.628Z,21.43
2019-01-25T15:29:45.884Z,20.60
2019-01-25T15:32:26.421Z,22.77
2019-01-25T15:35:18.694Z,21.43
2019-01-25T15:37:50.773Z,21.90
2019-01-25T15:40:31.376Z,21.43
2019-01-25T15:43:13.437Z,20.77
2019-01-25T15:45:53.589Z,21.50
2019-01-25T15:48:35.426Z,21.00
2019-01-25T15:51:16.775Z,19.77
2019-01-25T15:56:58.913Z,20.97
2019-01-25T15:59:38.521Z,21.53
2019-01-25T16:02:18.934Z,21.20
2019-01-25T16:04:59.264Z,20.57
2019-01-25T16:07:42.876Z,20.63
2019-01-25T16:10:22.846Z,19.93
2019-01-25T16:13:03.137Z,20.40
2019-01-25T16:15:45.245Z,19.50
2019-01-25T16:18:25.784Z,19.33
2019-01-25T16:21:07.092Z,18.93
2019-01-25T16:23:36.638Z,18.60
2019-01-25T16:26:04.392Z,19.40
2019-01-25T16:28:31.986Z,20.77
2019-01-25T16:30:59.616Z,20.53
2019-01-25T16:33:27.244Z,19.77
2019-01-25T16:35:54.845Z,21.50
2019-01-25T16:38:22.468Z,25.20
2019-01-25T16:40:50.097Z,24.17
2019-01-25T16:43:17.976Z,22.87
2019-01-25T16:45:45.596Z,25.53
2019-01-25T16:48:13.331Z,25.10
2019-01-25T16:50:41.022Z,23.87
2019-01-25T16:53:10.778Z,23.50
2019-01-25T16:55:38.373Z,22.83
2019-01-25T16:58:06.436Z,23.23
2019-01-25T17:00:42.355Z,23.20
2019-01-25T17:03:10.242Z,23.47
2019-01-25T17:05:37.904Z,22.63
2019-01-25T17:08:06.104Z,23.03
2019-01-25T17:10:33.894Z,25.37
2019-01-25T17:13:01.522Z,24.67
2019-01-25T17:15:29.168Z,22.50
2019-01-25T17:17:56.749Z,19.10
2019-01-25T17:20:24.408Z,20.47
2019-01-25T17:22:52.375Z,20.63
2019-01-25T17:25:20.105Z,17.97
2019-01-25T17:27:47.867Z,19.70
2019-01-25T17:30:26.600Z,30.27
2019-01-25T17:32:55.193Z,45.53
2019-01-25T17:35:23.632Z,29.87
2019-01-25T17:37:51.233Z,24.07
2019-01-25T17:40:21.457Z,19.93
2019-01-25T17:42:49.131Z,15.60
2019-01-25T17:45:16.752Z,14.90
2019-01-25T17:47:44.407Z,15.60
2019-01-25T17:50:12.617Z,15.03
2019-01-25T17:52:40.320Z,15.60
2019-01-25T17:55:08.884Z,15.97
2019-01-25T17:57:36.644Z,15.80
2019-01-25T18:00:08.481Z,16.40
2019-01-25T18:02:36.155Z,15.83
2019-01-25T18:05:04.304Z,16.10
2019-01-25T18:07:31.956Z,14.97
2019-01-25T18:09:59.565Z,13.77
2019-01-25T18:12:27.270Z,15.17
2019-01-25T18:14:55.078Z,14.57
2019-01-25T18:17:22.708Z,14.90
2019-01-25T18:19:50.305Z,14.60
2019-01-25T18:22:17.945Z,13.40
2019-01-25T18:24:45.660Z,12.80
2019-01-25T18:27:13.337Z,12.50
2019-01-25T18:29:46.765Z,14.93
2019-01-25T18:32:14.450Z,13.70
2019-01-25T18:34:42.088Z,14.30
2019-01-25T18:37:09.904Z,13.60
2019-01-25T18:39:37.556Z,13.57
2019-01-25T18:42:05.268Z,15.23
2019-01-25T18:44:33.088Z,18.37
2019-01-25T18:47:00.803Z,14.63
2019-01-25T18:49:28.492Z,13.60
2019-01-25T18:51:56.085Z,14.23
2019-01-25T18:54:23.794Z,12.50
2019-01-25T18:56:52.473Z,13.57
2019-01-25T18:59:20.132Z,13.10
2019-01-25T19:01:47.757Z,13.07
2019-01-25T19:04:15.489Z,12.33
2019-01-25T19:06:43.161Z,13.33
2019-01-25T19:09:10.936Z,13.93
2019-01-25T19:11:38.544Z,13.27
2019-01-25T19:14:06.364Z,13.50
2019-01-25T19:16:33.967Z,12.70
2019-01-25T19:19:02.174Z,12.70
2019-01-25T19:21:29.811Z,13.87
2019-01-25T19:23:57.466Z,13.93
2019-01-25T19:26:25.097Z,13.33
2019-01-25T19:28:52.748Z,13.67
2019-01-25T19:31:20.404Z,13.03
2019-01-25T19:33:48.000Z,13.43
2019-01-25T19:36:15.655Z,13.33
2019-01-25T19:38:43.276Z,12.67
2019-01-25T19:41:11.086Z,12.67
2019-01-25T19:43:38.788Z,12.07
2019-01-25T19:46:06.536Z,11.73
2019-01-25T19:48:35.055Z,13.17
2019-01-25T19:51:02.816Z,12.43
2019-01-25T19:53:30.400Z,11.70
2019-01-25T19:55:58.060Z,11.67
2019-01-25T19:58:27.110Z,12.43
2019-01-25T20:00:55.506Z,11.53
2019-01-25T20:03:23.676Z,11.10
2019-01-25T20:05:51.284Z,11.93
2019-01-25T20:08:19.000Z,10.93
2019-01-25T20:10:46.732Z,11.40
2019-01-25T20:13:14.432Z,11.17
2019-01-25T20:15:42.222Z,10.97
2019-01-25T20:18:09.972Z,11.33
2019-01-25T20:20:37.763Z,11.83
2019-01-25T20:23:05.626Z,10.40
2019-01-25T20:25:33.539Z,12.47
2019-01-25T20:28:01.189Z,11.53
2019-01-25T20:30:29.750Z,11.00
2019-01-25T20:32:58.429Z,11.50
2019-01-25T20:35:30.947Z,11.00
2019-01-25T20:37:58.556Z,10.77
2019-01-25T20:40:26.177Z,12.67
2019-01-25T20:42:53.801Z,11.00
2019-01-25T20:45:27.330Z,13.70
2019-01-25T20:47:53.321Z,11.73
2019-01-25T20:50:23.499Z,11.13
2019-01-25T20:52:51.104Z,11.50
2019-01-25T20:55:19.153Z,11.33
2019-01-25T20:57:46.732Z,11.70
2019-01-25T21:00:17.396Z,13.97
2019-01-25T21:02:45.079Z,14.53
2019-01-25T21:05:14.854Z,11.87
2019-01-25T21:07:42.500Z,11.70
2019-01-25T21:10:12.514Z,11.07
2019-01-25T21:12:40.209Z,10.27
2019-01-25T21:15:09.871Z,11.37
2019-01-25T21:17:37.596Z,13.00
2019-01-25T21:20:09.088Z,23.07
2019-01-25T21:22:36.675Z,16.67
2019-01-25T21:25:04.731Z,11.60
2019-01-25T21:27:32.316Z,11.53
2019-01-25T21:29:59.971Z,11.17
2019-01-25T21:32:27.575Z,11.67
2019-01-25T21:34:55.228Z,11.07
2019-01-25T21:37:22.841Z,11.30
2019-01-25T21:39:50.488Z,10.73
2019-01-25T21:42:18.073Z,10.23
2019-01-25T21:44:48.007Z,10.03
2019-01-25T21:47:15.628Z,13.30
2019-01-25T21:49:43.764Z,19.10
2019-01-25T21:52:11.451Z,9.73
2019-01-25T21:54:39.180Z,9.87
2019-01-25T21:57:06.822Z,9.63
2019-01-25T21:59:34.756Z,9.30
2019-01-25T22:02:02.542Z,9.23
2019-01-25T22:04:30.194Z,9.90
2019-01-25T22:06:57.840Z,10.30
2019-01-25T22:09:25.533Z,10.77
2019-01-25T22:11:53.119Z,9.67
2019-01-25T22:14:20.840Z,9.40
2019-01-25T22:16:48.963Z,8.97
2019-01-25T22:19:16.764Z,9.23
2019-01-25T22:21:44.386Z,8.43
2019-01-25T22:24:12.162Z,8.00
2019-01-25T22:26:39.929Z,8.50
2019-01-25T22:29:07.684Z,8.67
2019-01-25T22:31:35.343Z,8.83
2019-01-25T22:34:03.087Z,8.17
2019-01-25T22:36:30.696Z,8.93
2019-01-25T22:38:58.656Z,8.00
2019-01-25T22:41:26.312Z,8.57
2019-01-25T22:43:53.896Z,8.27
2019-01-25T22:46:21.571Z,8.67
2019-01-25T22:49:08.711Z,8.70
2019-01-25T22:51:50.122Z,8.57
2019-01-25T22:54:32.378Z,8.30
2019-01-25T22:57:13.078Z,8.33
2019-01-25T22:59:53.087Z,8.63
2019-01-25T23:02:36.158Z,9.27
2019-01-25T23:05:15.853Z,8.93
2019-01-25T23:07:57.852Z,8.47
2019-01-25T23:13:34.741Z,7.70
2019-01-25T23:16:19.256Z,8.00
2019-01-25T23:18:59.580Z,7.67
2019-01-25T23:21:27.377Z,8.50
2019-01-25T23:23:55.051Z,8.00
2019-01-25T23:26:23.068Z,8.23
2019-01-25T23:28:51.436Z,7.70
2019-01-25T23:31:19.017Z,7.27
2019-01-25T23:33:46.859Z,7.10
2019-01-25T23:36:14.486Z,7.60
2019-01-25T23:38:42.242Z,7.10
2019-01-25T23:41:10.004Z,7.80
2019-01-25T23:43:37.595Z,7.23
2019-01-25T23:46:05.244Z,8.00
2019-01-25T23:48:32.864Z,7.13
2019-01-25T23:51:00.484Z,7.50
2019-01-25T23:53:28.230Z,7.90
2019-01-25T23:55:55.825Z,7.10
2019-01-25T23:58:43.248Z,7.10
